sensor_id;sensor_type;location;lat;lon;timestamp;temperature;humidity
64874;HTU21D;51367;45.204;38.576;2023-11-19T00:00:57;8.47;81.36
64874;HTU21D;51367;45.204;38.576;2023-11-19T00:03:23;8.48;81.35
64874;HTU21D;51367;45.204;38.576;2023-11-19T00:05:49;8.48;81.35
64874;HTU21D;51367;45.204;38.576;2023-11-19T00:08:16;8.49;81.34
64874;HTU21D;51367;45.204;38.576;2023-11-19T00:10:42;8.50;81.34
64874;HTU21D;51367;45.204;38.576;2023-11-19T00:13:08;8.50;81.33
64874;HTU21D;51367;45.204;38.576;2023-11-19T00:15:35;8.52;81.35
64874;HTU21D;51367;45.204;38.576;2023-11-19T00:18:01;8.55;81.32
64874;HTU21D;51367;45.204;38.576;2023-11-19T00:20:30;8.57;81.30
64874;HTU21D;51367;45.204;38.576;2023-11-19T00:22:56;8.57;81.30
64874;HTU21D;51367;45.204;38.576;2023-11-19T00:25:23;8.58;81.27
64874;HTU21D;51367;45.204;38.576;2023-11-19T00:27:49;8.60;81.27
64874;HTU21D;51367;45.204;38.576;2023-11-19T00:30:16;8.59;81.24
64874;HTU21D;51367;45.204;38.576;2023-11-19T00:32:42;8.59;81.23
64874;HTU21D;51367;45.204;38.576;2023-11-19T00:35:08;8.60;81.23
64874;HTU21D;51367;45.204;38.576;2023-11-19T00:37:39;8.62;81.21
64874;HTU21D;51367;45.204;38.576;2023-11-19T00:40:06;8.64;81.20
64874;HTU21D;51367;45.204;38.576;2023-11-19T00:42:32;8.65;81.14
64874;HTU21D;51367;45.204;38.576;2023-11-19T00:44:58;8.66;81.11
64874;HTU21D;51367;45.204;38.576;2023-11-19T00:47:24;8.67;81.07
64874;HTU21D;51367;45.204;38.576;2023-11-19T00:49:50;8.66;81.06
64874;HTU21D;51367;45.204;38.576;2023-11-19T00:52:17;8.65;81.05
64874;HTU21D;51367;45.204;38.576;2023-11-19T00:54:44;8.64;81.07
64874;HTU21D;51367;45.204;38.576;2023-11-19T00:57:10;8.63;81.08
64874;HTU21D;51367;45.204;38.576;2023-11-19T00:59:36;8.60;81.13
64874;HTU21D;51367;45.204;38.576;2023-11-19T01:02:02;8.59;81.15
64874;HTU21D;51367;45.204;38.576;2023-11-19T01:04:35;8.59;81.14
64874;HTU21D;51367;45.204;38.576;2023-11-19T01:07:02;8.57;81.20
64874;HTU21D;51367;45.204;38.576;2023-11-19T01:09:30;8.56;81.20
64874;HTU21D;51367;45.204;38.576;2023-11-19T01:11:58;8.56;81.21
64874;HTU21D;51367;45.204;38.576;2023-11-19T01:14:27;8.55;81.19
64874;HTU21D;51367;45.204;38.576;2023-11-19T01:16:53;8.56;81.20
64874;HTU21D;51367;45.204;38.576;2023-11-19T01:19:21;8.56;81.21
64874;HTU21D;51367;45.204;38.576;2023-11-19T01:21:48;8.56;81.17
64874;HTU21D;51367;45.204;38.576;2023-11-19T01:24:14;8.58;81.14
64874;HTU21D;51367;45.204;38.576;2023-11-19T01:26:40;8.61;81.08
64874;HTU21D;51367;45.204;38.576;2023-11-19T01:29:14;8.64;81.00
64874;HTU21D;51367;45.204;38.576;2023-11-19T01:31:41;8.64;80.93
64874;HTU21D;51367;45.204;38.576;2023-11-19T01:34:07;8.65;80.91
64874;HTU21D;51367;45.204;38.576;2023-11-19T01:36:34;8.64;80.90
64874;HTU21D;51367;45.204;38.576;2023-11-19T01:39:00;8.66;80.90
64874;HTU21D;51367;45.204;38.576;2023-11-19T01:41:26;8.65;80.88
64874;HTU21D;51367;45.204;38.576;2023-11-19T01:43:52;8.67;80.88
64874;HTU21D;51367;45.204;38.576;2023-11-19T01:46:18;8.67;80.83
64874;HTU21D;51367;45.204;38.576;2023-11-19T01:48:45;8.67;80.81
64874;HTU21D;51367;45.204;38.576;2023-11-19T01:51:12;8.68;80.81
64874;HTU21D;51367;45.204;38.576;2023-11-19T01:53:39;8.66;80.80
64874;HTU21D;51367;45.204;38.576;2023-11-19T01:56:09;8.64;80.85
64874;HTU21D;51367;45.204;38.576;2023-11-19T01:58:38;8.62;80.88
64874;HTU21D;51367;45.204;38.576;2023-11-19T02:01:06;8.62;80.87
64874;HTU21D;51367;45.204;38.576;2023-11-19T02:03:33;8.60;80.90
64874;HTU21D;51367;45.204;38.576;2023-11-19T02:06:00;8.60;80.94
64874;HTU21D;51367;45.204;38.576;2023-11-19T02:08:26;8.59;80.95
64874;HTU21D;51367;45.204;38.576;2023-11-19T02:10:53;8.57;81.04
64874;HTU21D;51367;45.204;38.576;2023-11-19T02:13:22;8.56;81.07
64874;HTU21D;51367;45.204;38.576;2023-11-19T02:15:48;8.55;81.14
64874;HTU21D;51367;45.204;38.576;2023-11-19T02:20:49;8.50;81.33
64874;HTU21D;51367;45.204;38.576;2023-11-19T02:23:15;8.49;81.51
64874;HTU21D;51367;45.204;38.576;2023-11-19T02:25:43;8.47;81.56
64874;HTU21D;51367;45.204;38.576;2023-11-19T02:28:12;8.43;81.49
64874;HTU21D;51367;45.204;38.576;2023-11-19T02:30:38;8.38;81.82
64874;HTU21D;51367;45.204;38.576;2023-11-19T02:33:04;8.33;82.29
64874;HTU21D;51367;45.204;38.576;2023-11-19T02:35:34;8.27;82.68
64874;HTU21D;51367;45.204;38.576;2023-11-19T02:38:00;8.20;82.64
64874;HTU21D;51367;45.204;38.576;2023-11-19T02:40:26;8.16;82.58
64874;HTU21D;51367;45.204;38.576;2023-11-19T02:42:53;8.12;82.86
64874;HTU21D;51367;45.204;38.576;2023-11-19T02:45:22;8.06;83.56
64874;HTU21D;51367;45.204;38.576;2023-11-19T02:47:48;8.03;83.00
64874;HTU21D;51367;45.204;38.576;2023-11-19T02:50:14;8.00;83.13
64874;HTU21D;51367;45.204;38.576;2023-11-19T02:52:44;7.98;83.41
64874;HTU21D;51367;45.204;38.576;2023-11-19T02:55:11;7.99;83.56
64874;HTU21D;51367;45.204;38.576;2023-11-19T02:57:41;7.98;84.01
64874;HTU21D;51367;45.204;38.576;2023-11-19T03:00:18;7.97;84.33
64874;HTU21D;51367;45.204;38.576;2023-11-19T03:02:45;7.96;84.56
64874;HTU21D;51367;45.204;38.576;2023-11-19T03:05:20;7.94;84.57
64874;HTU21D;51367;45.204;38.576;2023-11-19T03:07:46;7.91;84.73
64874;HTU21D;51367;45.204;38.576;2023-11-19T03:10:12;7.87;84.70
64874;HTU21D;51367;45.204;38.576;2023-11-19T03:12:41;7.85;85.22
64874;HTU21D;51367;45.204;38.576;2023-11-19T03:15:08;7.81;84.97
64874;HTU21D;51367;45.204;38.576;2023-11-19T03:17:43;7.78;85.27
64874;HTU21D;51367;45.204;38.576;2023-11-19T03:20:10;7.77;85.09
64874;HTU21D;51367;45.204;38.576;2023-11-19T03:22:37;7.78;85.38
64874;HTU21D;51367;45.204;38.576;2023-11-19T03:25:04;7.81;85.23
64874;HTU21D;51367;45.204;38.576;2023-11-19T03:27:30;7.82;85.31
64874;HTU21D;51367;45.204;38.576;2023-11-19T03:29:56;7.84;85.10
64874;HTU21D;51367;45.204;38.576;2023-11-19T03:32:22;7.84;85.19
64874;HTU21D;51367;45.204;38.576;2023-11-19T03:34:48;7.86;85.00
64874;HTU21D;51367;45.204;38.576;2023-11-19T03:37:14;7.87;85.30
64874;HTU21D;51367;45.204;38.576;2023-11-19T03:39:43;7.89;85.18
64874;HTU21D;51367;45.204;38.576;2023-11-19T03:42:09;7.90;85.16
64874;HTU21D;51367;45.204;38.576;2023-11-19T03:44:35;7.91;85.44
64874;HTU21D;51367;45.204;38.576;2023-11-19T03:47:01;7.94;85.33
64874;HTU21D;51367;45.204;38.576;2023-11-19T03:49:26;7.98;85.66
64874;HTU21D;51367;45.204;38.576;2023-11-19T03:51:53;8.02;85.61
64874;HTU21D;51367;45.204;38.576;2023-11-19T03:54:19;8.08;85.78
64874;HTU21D;51367;45.204;38.576;2023-11-19T03:56:46;8.11;85.50
64874;HTU21D;51367;45.204;38.576;2023-11-19T03:59:12;8.14;85.74
64874;HTU21D;51367;45.204;38.576;2023-11-19T04:01:38;8.17;85.65
64874;HTU21D;51367;45.204;38.576;2023-11-19T04:04:04;8.18;85.67
64874;HTU21D;51367;45.204;38.576;2023-11-19T04:06:29;8.20;85.64
64874;HTU21D;51367;45.204;38.576;2023-11-19T04:08:55;8.21;85.77
64874;HTU21D;51367;45.204;38.576;2023-11-19T04:11:21;8.23;85.67
64874;HTU21D;51367;45.204;38.576;2023-11-19T04:13:47;8.24;85.82
64874;HTU21D;51367;45.204;38.576;2023-11-19T04:16:14;8.24;86.03
64874;HTU21D;51367;45.204;38.576;2023-11-19T04:18:40;8.26;85.97
64874;HTU21D;51367;45.204;38.576;2023-11-19T04:21:07;8.23;86.08
64874;HTU21D;51367;45.204;38.576;2023-11-19T04:23:33;8.23;86.05
64874;HTU21D;51367;45.204;38.576;2023-11-19T04:26:02;8.24;86.01
64874;HTU21D;51367;45.204;38.576;2023-11-19T04:28:30;8.27;86.09
64874;HTU21D;51367;45.204;38.576;2023-11-19T04:30:56;8.27;86.05
64874;HTU21D;51367;45.204;38.576;2023-11-19T04:33:22;8.26;86.02
64874;HTU21D;51367;45.204;38.576;2023-11-19T04:35:48;8.26;85.96
64874;HTU21D;51367;45.204;38.576;2023-11-19T04:38:13;8.24;85.90
64874;HTU21D;51367;45.204;38.576;2023-11-19T04:40:40;8.23;85.82
64874;HTU21D;51367;45.204;38.576;2023-11-19T04:43:06;8.21;85.76
64874;HTU21D;51367;45.204;38.576;2023-11-19T04:45:33;8.15;85.79
64874;HTU21D;51367;45.204;38.576;2023-11-19T04:47:59;8.08;85.74
64874;HTU21D;51367;45.204;38.576;2023-11-19T04:50:25;8.01;85.87
64874;HTU21D;51367;45.204;38.576;2023-11-19T04:52:52;7.96;85.88
64874;HTU21D;51367;45.204;38.576;2023-11-19T04:55:19;7.90;86.10
64874;HTU21D;51367;45.204;38.576;2023-11-19T04:57:45;7.86;86.29
64874;HTU21D;51367;45.204;38.576;2023-11-19T05:00:11;7.83;86.48
64874;HTU21D;51367;45.204;38.576;2023-11-19T05:02:37;7.77;86.41
64874;HTU21D;51367;45.204;38.576;2023-11-19T05:05:04;7.75;86.39
64874;HTU21D;51367;45.204;38.576;2023-11-19T05:07:30;7.70;86.54
64874;HTU21D;51367;45.204;38.576;2023-11-19T05:09:56;7.67;86.57
64874;HTU21D;51367;45.204;38.576;2023-11-19T05:12:22;7.63;86.80
64874;HTU21D;51367;45.204;38.576;2023-11-19T05:14:48;7.60;86.93
64874;HTU21D;51367;45.204;38.576;2023-11-19T05:17:17;7.56;86.86
64874;HTU21D;51367;45.204;38.576;2023-11-19T05:19:44;7.54;87.03
64874;HTU21D;51367;45.204;38.576;2023-11-19T05:22:10;7.49;86.94
64874;HTU21D;51367;45.204;38.576;2023-11-19T05:24:36;7.45;86.96
64874;HTU21D;51367;45.204;38.576;2023-11-19T05:27:02;7.42;86.91
64874;HTU21D;51367;45.204;38.576;2023-11-19T05:29:28;7.40;86.96
64874;HTU21D;51367;45.204;38.576;2023-11-19T05:31:54;7.35;87.01
64874;HTU21D;51367;45.204;38.576;2023-11-19T05:34:21;7.32;87.05
64874;HTU21D;51367;45.204;38.576;2023-11-19T05:36:47;7.30;87.22
64874;HTU21D;51367;45.204;38.576;2023-11-19T05:39:13;7.26;87.18
64874;HTU21D;51367;45.204;38.576;2023-11-19T05:41:39;7.24;87.12
64874;HTU21D;51367;45.204;38.576;2023-11-19T05:44:05;7.20;87.19
64874;HTU21D;51367;45.204;38.576;2023-11-19T05:46:31;7.22;87.18
64874;HTU21D;51367;45.204;38.576;2023-11-19T05:48:56;7.17;87.27
64874;HTU21D;51367;45.204;38.576;2023-11-19T05:51:22;7.16;87.29
64874;HTU21D;51367;45.204;38.576;2023-11-19T05:53:50;7.15;87.43
64874;HTU21D;51367;45.204;38.576;2023-11-19T05:56:16;7.12;87.36
64874;HTU21D;51367;45.204;38.576;2023-11-19T05:58:47;7.12;87.41
64874;HTU21D;51367;45.204;38.576;2023-11-19T06:01:14;7.09;87.44
64874;HTU21D;51367;45.204;38.576;2023-11-19T06:03:40;7.08;87.44
64874;HTU21D;51367;45.204;38.576;2023-11-19T06:06:08;7.08;87.58
64874;HTU21D;51367;45.204;38.576;2023-11-19T06:08:35;7.05;87.58
64874;HTU21D;51367;45.204;38.576;2023-11-19T06:11:01;7.04;87.74
64874;HTU21D;51367;45.204;38.576;2023-11-19T06:13:27;7.05;87.82
64874;HTU21D;51367;45.204;38.576;2023-11-19T06:15:53;7.03;87.80
64874;HTU21D;51367;45.204;38.576;2023-11-19T06:18:19;7.03;87.83
64874;HTU21D;51367;45.204;38.576;2023-11-19T06:20:49;7.03;87.93
64874;HTU21D;51367;45.204;38.576;2023-11-19T06:23:15;7.03;87.95
64874;HTU21D;51367;45.204;38.576;2023-11-19T06:25:41;7.03;87.90
64874;HTU21D;51367;45.204;38.576;2023-11-19T06:28:07;7.04;87.88
64874;HTU21D;51367;45.204;38.576;2023-11-19T06:30:33;7.04;87.94
64874;HTU21D;51367;45.204;38.576;2023-11-19T06:32:59;7.04;87.94
64874;HTU21D;51367;45.204;38.576;2023-11-19T06:35:25;7.04;87.96
64874;HTU21D;51367;45.204;38.576;2023-11-19T06:37:52;7.03;87.97
64874;HTU21D;51367;45.204;38.576;2023-11-19T06:40:17;7.02;87.92
64874;HTU21D;51367;45.204;38.576;2023-11-19T06:42:43;7.01;88.14
64874;HTU21D;51367;45.204;38.576;2023-11-19T06:45:09;7.02;88.18
64874;HTU21D;51367;45.204;38.576;2023-11-19T06:47:35;7.03;88.24
64874;HTU21D;51367;45.204;38.576;2023-11-19T06:50:01;7.03;88.51
64874;HTU21D;51367;45.204;38.576;2023-11-19T06:52:31;7.03;88.42
64874;HTU21D;51367;45.204;38.576;2023-11-19T06:54:57;7.05;88.44
64874;HTU21D;51367;45.204;38.576;2023-11-19T06:57:23;7.04;88.47
64874;HTU21D;51367;45.204;38.576;2023-11-19T06:59:49;7.05;88.67
64874;HTU21D;51367;45.204;38.576;2023-11-19T07:02:15;7.07;88.88
64874;HTU21D;51367;45.204;38.576;2023-11-19T07:04:41;7.07;88.88
64874;HTU21D;51367;45.204;38.576;2023-11-19T07:07:07;7.07;88.86
64874;HTU21D;51367;45.204;38.576;2023-11-19T07:09:32;7.08;88.85
64874;HTU21D;51367;45.204;38.576;2023-11-19T07:11:59;7.10;88.88
64874;HTU21D;51367;45.204;38.576;2023-11-19T07:14:27;7.13;88.87
64874;HTU21D;51367;45.204;38.576;2023-11-19T07:16:54;7.15;88.96
64874;HTU21D;51367;45.204;38.576;2023-11-19T07:19:21;7.18;88.96
64874;HTU21D;51367;45.204;38.576;2023-11-19T07:21:47;7.22;88.96
64874;HTU21D;51367;45.204;38.576;2023-11-19T07:24:13;7.24;88.97
64874;HTU21D;51367;45.204;38.576;2023-11-19T07:26:46;7.27;88.99
64874;HTU21D;51367;45.204;38.576;2023-11-19T07:29:15;7.29;88.89
64874;HTU21D;51367;45.204;38.576;2023-11-19T07:31:44;7.29;88.83
64874;HTU21D;51367;45.204;38.576;2023-11-19T07:34:10;7.30;88.91
64874;HTU21D;51367;45.204;38.576;2023-11-19T07:36:37;7.30;88.91
64874;HTU21D;51367;45.204;38.576;2023-11-19T07:39:04;7.31;88.91
64874;HTU21D;51367;45.204;38.576;2023-11-19T07:41:31;7.32;88.84
64874;HTU21D;51367;45.204;38.576;2023-11-19T07:43:57;7.32;88.73
64874;HTU21D;51367;45.204;38.576;2023-11-19T07:46:23;7.32;88.85
64874;HTU21D;51367;45.204;38.576;2023-11-19T07:48:51;7.32;88.80
64874;HTU21D;51367;45.204;38.576;2023-11-19T07:51:18;7.33;88.90
64874;HTU21D;51367;45.204;38.576;2023-11-19T07:53:44;7.31;88.80
64874;HTU21D;51367;45.204;38.576;2023-11-19T07:56:10;7.32;88.80
64874;HTU21D;51367;45.204;38.576;2023-11-19T07:58:36;7.34;88.82
64874;HTU21D;51367;45.204;38.576;2023-11-19T08:01:02;7.35;88.78
64874;HTU21D;51367;45.204;38.576;2023-11-19T08:03:28;7.37;88.76
64874;HTU21D;51367;45.204;38.576;2023-11-19T08:05:55;7.38;88.73
64874;HTU21D;51367;45.204;38.576;2023-11-19T08:08:22;7.40;88.73
64874;HTU21D;51367;45.204;38.576;2023-11-19T08:10:48;7.41;88.72
64874;HTU21D;51367;45.204;38.576;2023-11-19T08:13:14;7.43;88.63
64874;HTU21D;51367;45.204;38.576;2023-11-19T08:15:40;7.44;88.65
64874;HTU21D;51367;45.204;38.576;2023-11-19T08:18:06;7.45;88.61
64874;HTU21D;51367;45.204;38.576;2023-11-19T08:20:34;7.47;88.58
64874;HTU21D;51367;45.204;38.576;2023-11-19T08:23:00;7.48;88.54
64874;HTU21D;51367;45.204;38.576;2023-11-19T08:25:25;7.48;88.47
64874;HTU21D;51367;45.204;38.576;2023-11-19T08:27:51;7.50;88.46
64874;HTU21D;51367;45.204;38.576;2023-11-19T08:30:19;7.50;88.41
64874;HTU21D;51367;45.204;38.576;2023-11-19T08:32:45;7.52;88.45
64874;HTU21D;51367;45.204;38.576;2023-11-19T08:35:11;7.54;88.57
64874;HTU21D;51367;45.204;38.576;2023-11-19T08:37:37;7.56;88.55
64874;HTU21D;51367;45.204;38.576;2023-11-19T08:40:04;7.59;88.63
64874;HTU21D;51367;45.204;38.576;2023-11-19T08:42:30;7.61;88.61
64874;HTU21D;51367;45.204;38.576;2023-11-19T08:44:56;7.67;88.60
64874;HTU21D;51367;45.204;38.576;2023-11-19T08:47:22;7.69;88.56
64874;HTU21D;51367;45.204;38.576;2023-11-19T08:49:51;7.71;88.52
64874;HTU21D;51367;45.204;38.576;2023-11-19T08:52:20;7.72;88.43
64874;HTU21D;51367;45.204;38.576;2023-11-19T08:54:46;7.73;88.41
64874;HTU21D;51367;45.204;38.576;2023-11-19T08:57:12;7.75;88.39
64874;HTU21D;51367;45.204;38.576;2023-11-19T08:59:38;7.75;88.36
64874;HTU21D;51367;45.204;38.576;2023-11-19T09:02:05;7.77;88.30
64874;HTU21D;51367;45.204;38.576;2023-11-19T09:04:32;7.78;88.21
64874;HTU21D;51367;45.204;38.576;2023-11-19T09:06:59;7.78;88.20
64874;HTU21D;51367;45.204;38.576;2023-11-19T09:09:25;7.78;88.12
64874;HTU21D;51367;45.204;38.576;2023-11-19T09:11:51;7.79;88.12
64874;HTU21D;51367;45.204;38.576;2023-11-19T09:14:17;7.81;88.09
64874;HTU21D;51367;45.204;38.576;2023-11-19T09:16:45;7.77;88.09
64874;HTU21D;51367;45.204;38.576;2023-11-19T09:19:11;7.75;88.07
64874;HTU21D;51367;45.204;38.576;2023-11-19T09:21:36;7.75;88.14
64874;HTU21D;51367;45.204;38.576;2023-11-19T09:24:05;7.75;88.12
64874;HTU21D;51367;45.204;38.576;2023-11-19T09:26:30;7.76;88.22
64874;HTU21D;51367;45.204;38.576;2023-11-19T09:28:56;7.77;88.28
64874;HTU21D;51367;45.204;38.576;2023-11-19T09:31:22;7.75;88.40
64874;HTU21D;51367;45.204;38.576;2023-11-19T09:33:48;7.72;88.40
64874;HTU21D;51367;45.204;38.576;2023-11-19T09:36:14;7.65;88.41
64874;HTU21D;51367;45.204;38.576;2023-11-19T09:38:45;7.60;88.37
64874;HTU21D;51367;45.204;38.576;2023-11-19T09:41:11;7.56;88.61
64874;HTU21D;51367;45.204;38.576;2023-11-19T09:43:40;7.49;88.86
64874;HTU21D;51367;45.204;38.576;2023-11-19T09:46:09;7.48;88.76
64874;HTU21D;51367;45.204;38.576;2023-11-19T09:48:38;7.46;88.87
64874;HTU21D;51367;45.204;38.576;2023-11-19T09:51:10;7.46;88.86
64874;HTU21D;51367;45.204;38.576;2023-11-19T09:53:37;7.46;88.97
64874;HTU21D;51367;45.204;38.576;2023-11-19T09:56:05;7.46;89.16
64874;HTU21D;51367;45.204;38.576;2023-11-19T09:58:34;7.47;89.18
64874;HTU21D;51367;45.204;38.576;2023-11-19T10:01:00;7.46;89.22
64874;HTU21D;51367;45.204;38.576;2023-11-19T10:03:35;7.48;89.22
64874;HTU21D;51367;45.204;38.576;2023-11-19T10:06:04;7.50;89.47
64874;HTU21D;51367;45.204;38.576;2023-11-19T10:08:32;7.52;89.65
64874;HTU21D;51367;45.204;38.576;2023-11-19T10:10:58;7.53;89.63
64874;HTU21D;51367;45.204;38.576;2023-11-19T10:13:28;7.54;89.63
64874;HTU21D;51367;45.204;38.576;2023-11-19T10:15:57;7.56;89.68
64874;HTU21D;51367;45.204;38.576;2023-11-19T10:18:26;7.58;89.71
64874;HTU21D;51367;45.204;38.576;2023-11-19T10:20:53;7.61;89.70
64874;HTU21D;51367;45.204;38.576;2023-11-19T10:23:19;7.64;89.63
64874;HTU21D;51367;45.204;38.576;2023-11-19T10:25:45;7.67;89.53
64874;HTU21D;51367;45.204;38.576;2023-11-19T10:28:11;7.68;89.46
64874;HTU21D;51367;45.204;38.576;2023-11-19T10:30:37;7.73;89.43
64874;HTU21D;51367;45.204;38.576;2023-11-19T10:35:29;7.79;89.57
64874;HTU21D;51367;45.204;38.576;2023-11-19T10:37:55;7.84;89.75
64874;HTU21D;51367;45.204;38.576;2023-11-19T10:40:21;7.87;89.91
64874;HTU21D;51367;45.204;38.576;2023-11-19T10:42:47;7.91;90.13
64874;HTU21D;51367;45.204;38.576;2023-11-19T10:45:23;7.96;90.21
64874;HTU21D;51367;45.204;38.576;2023-11-19T10:47:52;8.00;90.52
64874;HTU21D;51367;45.204;38.576;2023-11-19T10:50:19;8.04;90.46
64874;HTU21D;51367;45.204;38.576;2023-11-19T10:52:47;8.11;90.50
64874;HTU21D;51367;45.204;38.576;2023-11-19T10:55:15;8.15;90.76
64874;HTU21D;51367;45.204;38.576;2023-11-19T10:57:47;8.17;90.83
64874;HTU21D;51367;45.204;38.576;2023-11-19T11:00:16;8.18;90.82
64874;HTU21D;51367;45.204;38.576;2023-11-19T11:02:50;8.18;90.85
64874;HTU21D;51367;45.204;38.576;2023-11-19T11:05:18;8.16;90.79
64874;HTU21D;51367;45.204;38.576;2023-11-19T11:07:45;8.16;90.92
64874;HTU21D;51367;45.204;38.576;2023-11-19T11:10:11;8.18;90.89
64874;HTU21D;51367;45.204;38.576;2023-11-19T11:12:40;8.17;90.95
64874;HTU21D;51367;45.204;38.576;2023-11-19T11:15:08;8.17;91.08
64874;HTU21D;51367;45.204;38.576;2023-11-19T11:17:36;8.17;91.06
64874;HTU21D;51367;45.204;38.576;2023-11-19T11:20:02;8.16;91.13
64874;HTU21D;51367;45.204;38.576;2023-11-19T11:22:39;8.16;91.14
64874;HTU21D;51367;45.204;38.576;2023-11-19T11:25:28;8.16;91.15
64874;HTU21D;51367;45.204;38.576;2023-11-19T11:33:35;8.14;91.28
64874;HTU21D;51367;45.204;38.576;2023-11-19T11:36:19;8.15;91.34
64874;HTU21D;51367;45.204;38.576;2023-11-19T11:38:48;8.16;91.40
64874;HTU21D;51367;45.204;38.576;2023-11-19T11:41:22;8.14;91.40
64874;HTU21D;51367;45.204;38.576;2023-11-19T11:43:55;8.16;91.50
64874;HTU21D;51367;45.204;38.576;2023-11-19T11:49:06;8.15;91.62
64874;HTU21D;51367;45.204;38.576;2023-11-19T11:54:11;8.13;91.79
64874;HTU21D;51367;45.204;38.576;2023-11-19T11:56:37;8.12;91.86
64874;HTU21D;51367;45.204;38.576;2023-11-19T11:59:07;8.12;91.93
64874;HTU21D;51367;45.204;38.576;2023-11-19T12:01:35;8.13;91.97
64874;HTU21D;51367;45.204;38.576;2023-11-19T12:04:01;8.14;92.09
64874;HTU21D;51367;45.204;38.576;2023-11-19T12:06:28;8.14;92.02
64874;HTU21D;51367;45.204;38.576;2023-11-19T12:08:59;8.16;92.09
64874;HTU21D;51367;45.204;38.576;2023-11-19T12:11:25;8.18;92.17
64874;HTU21D;51367;45.204;38.576;2023-11-19T12:13:55;8.18;92.16
64874;HTU21D;51367;45.204;38.576;2023-11-19T12:16:23;8.21;92.21
64874;HTU21D;51367;45.204;38.576;2023-11-19T12:18:49;8.22;92.25
64874;HTU21D;51367;45.204;38.576;2023-11-19T12:21:29;8.22;92.16
64874;HTU21D;51367;45.204;38.576;2023-11-19T12:23:59;8.22;92.17
64874;HTU21D;51367;45.204;38.576;2023-11-19T12:26:39;8.24;92.18
64874;HTU21D;51367;45.204;38.576;2023-11-19T12:29:06;8.24;92.16
64874;HTU21D;51367;45.204;38.576;2023-11-19T12:31:32;8.26;92.14
64874;HTU21D;51367;45.204;38.576;2023-11-19T12:33:58;8.27;92.11
64874;HTU21D;51367;45.204;38.576;2023-11-19T12:36:24;8.28;92.09
64874;HTU21D;51367;45.204;38.576;2023-11-19T12:38:50;8.31;92.08
64874;HTU21D;51367;45.204;38.576;2023-11-19T12:41:16;8.32;92.06
64874;HTU21D;51367;45.204;38.576;2023-11-19T12:43:46;8.36;92.06
64874;HTU21D;51367;45.204;38.576;2023-11-19T12:46:22;8.35;92.01
64874;HTU21D;51367;45.204;38.576;2023-11-19T12:48:49;8.36;91.96
64874;HTU21D;51367;45.204;38.576;2023-11-19T12:51:15;8.35;91.94
64874;HTU21D;51367;45.204;38.576;2023-11-19T12:53:49;8.35;91.92
64874;HTU21D;51367;45.204;38.576;2023-11-19T12:56:21;8.36;91.91
64874;HTU21D;51367;45.204;38.576;2023-11-19T12:58:48;8.35;91.86
64874;HTU21D;51367;45.204;38.576;2023-11-19T13:01:18;8.35;91.90
64874;HTU21D;51367;45.204;38.576;2023-11-19T13:03:45;8.36;91.89
64874;HTU21D;51367;45.204;38.576;2023-11-19T13:06:12;8.37;91.90
64874;HTU21D;51367;45.204;38.576;2023-11-19T13:08:40;8.41;91.90
64874;HTU21D;51367;45.204;38.576;2023-11-19T13:11:07;8.41;91.89
64874;HTU21D;51367;45.204;38.576;2023-11-19T13:14:00;8.44;91.89
64874;HTU21D;51367;45.204;38.576;2023-11-19T13:16:28;8.46;91.88
64874;HTU21D;51367;45.204;38.576;2023-11-19T13:18:54;8.48;91.83
64874;HTU21D;51367;45.204;38.576;2023-11-19T13:21:20;8.52;91.85
64874;HTU21D;51367;45.204;38.576;2023-11-19T13:23:46;8.55;91.82
64874;HTU21D;51367;45.204;38.576;2023-11-19T13:26:12;8.56;91.71
64874;HTU21D;51367;45.204;38.576;2023-11-19T13:28:38;8.56;91.63
64874;HTU21D;51367;45.204;38.576;2023-11-19T13:31:05;8.57;91.56
64874;HTU21D;51367;45.204;38.576;2023-11-19T13:33:31;8.56;91.54
64874;HTU21D;51367;45.204;38.576;2023-11-19T13:35:57;8.53;91.52
64874;HTU21D;51367;45.204;38.576;2023-11-19T13:38:23;8.53;91.50
64874;HTU21D;51367;45.204;38.576;2023-11-19T13:40:50;8.50;91.47
64874;HTU21D;51367;45.204;38.576;2023-11-19T13:43:17;8.50;91.54
64874;HTU21D;51367;45.204;38.576;2023-11-19T13:45:42;8.50;91.56
64874;HTU21D;51367;45.204;38.576;2023-11-19T13:48:08;8.50;91.59
64874;HTU21D;51367;45.204;38.576;2023-11-19T13:50:35;8.51;91.61
64874;HTU21D;51367;45.204;38.576;2023-11-19T13:53:01;8.50;91.67
64874;HTU21D;51367;45.204;38.576;2023-11-19T13:55:27;8.49;91.59
64874;HTU21D;51367;45.204;38.576;2023-11-19T13:57:53;8.47;91.53
64874;HTU21D;51367;45.204;38.576;2023-11-19T14:00:18;8.45;91.56
64874;HTU21D;51367;45.204;38.576;2023-11-19T14:02:46;8.42;91.55
64874;HTU21D;51367;45.204;38.576;2023-11-19T14:05:16;8.39;91.54
64874;HTU21D;51367;45.204;38.576;2023-11-19T14:07:45;8.37;91.62
64874;HTU21D;51367;45.204;38.576;2023-11-19T14:10:14;8.35;91.64
64874;HTU21D;51367;45.204;38.576;2023-11-19T14:12:41;8.35;91.64
64874;HTU21D;51367;45.204;38.576;2023-11-19T14:15:08;8.36;91.74
64874;HTU21D;51367;45.204;38.576;2023-11-19T14:17:35;8.37;91.80
64874;HTU21D;51367;45.204;38.576;2023-11-19T14:20:02;8.38;91.88
64874;HTU21D;51367;45.204;38.576;2023-11-19T14:22:49;8.41;91.93
64874;HTU21D;51367;45.204;38.576;2023-11-19T14:25:17;8.42;91.95
64874;HTU21D;51367;45.204;38.576;2023-11-19T14:27:43;8.43;91.89
64874;HTU21D;51367;45.204;38.576;2023-11-19T14:30:12;8.44;91.89
64874;HTU21D;51367;45.204;38.576;2023-11-19T14:32:40;8.44;91.88
64874;HTU21D;51367;45.204;38.576;2023-11-19T14:35:08;8.42;91.92
64874;HTU21D;51367;45.204;38.576;2023-11-19T14:37:33;8.41;91.89
64874;HTU21D;51367;45.204;38.576;2023-11-19T14:40:00;8.39;91.89
64874;HTU21D;51367;45.204;38.576;2023-11-19T14:42:28;8.37;91.87
64874;HTU21D;51367;45.204;38.576;2023-11-19T14:44:54;8.34;91.82
64874;HTU21D;51367;45.204;38.576;2023-11-19T14:47:25;8.31;91.80
64874;HTU21D;51367;45.204;38.576;2023-11-19T14:49:51;8.29;91.82
64874;HTU21D;51367;45.204;38.576;2023-11-19T14:52:17;8.26;91.87
64874;HTU21D;51367;45.204;38.576;2023-11-19T14:54:43;8.24;91.92
64874;HTU21D;51367;45.204;38.576;2023-11-19T14:57:09;8.22;91.92
64874;HTU21D;51367;45.204;38.576;2023-11-19T14:59:36;8.20;91.90
64874;HTU21D;51367;45.204;38.576;2023-11-19T15:02:02;8.18;91.90
64874;HTU21D;51367;45.204;38.576;2023-11-19T15:04:28;8.16;91.90
64874;HTU21D;51367;45.204;38.576;2023-11-19T15:06:58;8.12;91.83
64874;HTU21D;51367;45.204;38.576;2023-11-19T15:09:25;8.07;91.89
64874;HTU21D;51367;45.204;38.576;2023-11-19T15:11:53;8.07;91.92
64874;HTU21D;51367;45.204;38.576;2023-11-19T15:14:19;8.05;91.89
64874;HTU21D;51367;45.204;38.576;2023-11-19T15:16:46;8.01;91.85
64874;HTU21D;51367;45.204;38.576;2023-11-19T15:19:13;7.98;91.86
64874;HTU21D;51367;45.204;38.576;2023-11-19T15:21:40;7.94;91.85
64874;HTU21D;51367;45.204;38.576;2023-11-19T15:24:09;7.93;91.87
64874;HTU21D;51367;45.204;38.576;2023-11-19T15:26:37;7.91;91.92
64874;HTU21D;51367;45.204;38.576;2023-11-19T15:29:04;7.90;91.92
64874;HTU21D;51367;45.204;38.576;2023-11-19T15:31:31;7.90;91.98